sensor_id;sensor_type;location;lat;lon;timestamp;P1;durP1;ratioP1;P2;durP2;ratioP2
14013;SDS011;49110;52.584;13.408;2023-05-23T00:00:12;5.47;;;2.90;;
14013;SDS011;49110;52.584;13.408;2023-05-23T00:01:13;5.17;;;3.60;;
14013;SDS011;49110;52.584;13.408;2023-05-23T00:02:15;7.57;;;3.67;;
14013;SDS011;49110;52.584;13.408;2023-05-23T00:03:16;5.70;;;3.30;;
14013;SDS011;49110;52.584;13.408;2023-05-23T00:04:16;4.10;;;3.40;;
14013;SDS011;49110;52.584;13.408;2023-05-23T00:05:17;3.60;;;3.30;;
14013;SDS011;49110;52.584;13.408;2023-05-23T00:06:18;3.50;;;3.07;;
14013;SDS011;49110;52.584;13.408;2023-05-23T00:07:20;4.67;;;2.90;;
14013;SDS011;49110;52.584;13.408;2023-05-23T00:08:20;4.07;;;3.30;;
14013;SDS011;49110;52.584;13.408;2023-05-23T00:09:21;5.03;;;2.93;;
14013;SDS011;49110;52.584;13.408;2023-05-23T00:10:21;3.87;;;2.97;;
14013;SDS011;49110;52.584;13.408;2023-05-23T00:11:22;4.30;;;3.10;;
14013;SDS011;49110;52.584;13.408;2023-05-23T00:12:25;5.43;;;3.40;;
14013;SDS011;49110;52.584;13.408;2023-05-23T00:13:26;3.37;;;3.07;;
14013;SDS011;49110;52.584;13.408;2023-05-23T00:14:26;7.00;;;3.33;;
14013;SDS011;49110;52.584;13.408;2023-05-23T00:15:30;3.30;;;3.00;;
14013;SDS011;49110;52.584;13.408;2023-05-23T00:16:32;5.47;;;3.50;;
14013;SDS011;49110;52.584;13.408;2023-05-23T00:17:33;4.17;;;3.30;;
14013;SDS011;49110;52.584;13.408;2023-05-23T00:18:37;6.50;;;4.50;;
14013;SDS011;49110;52.584;13.408;2023-05-23T00:19:39;7.53;;;5.00;;
14013;SDS011;49110;52.584;13.408;2023-05-23T00:20:40;8.33;;;4.57;;
14013;SDS011;49110;52.584;13.408;2023-05-23T00:21:45;6.43;;;4.10;;
14013;SDS011;49110;52.584;13.408;2023-05-23T00:22:55;7.07;;;3.83;;
14013;SDS011;49110;52.584;13.408;2023-05-23T00:23:58;7.57;;;3.97;;
14013;SDS011;49110;52.584;13.408;2023-05-23T00:24:59;5.80;;;3.80;;
14013;SDS011;49110;52.584;13.408;2023-05-23T00:26:01;4.33;;;3.27;;
14013;SDS011;49110;52.584;13.408;2023-05-23T00:27:01;4.70;;;3.27;;
14013;SDS011;49110;52.584;13.408;2023-05-23T00:28:02;5.90;;;3.30;;
14013;SDS011;49110;52.584;13.408;2023-05-23T00:29:03;3.90;;;3.00;;
14013;SDS011;49110;52.584;13.408;2023-05-23T00:30:04;5.67;;;3.33;;
14013;SDS011;49110;52.584;13.408;2023-05-23T00:31:05;6.03;;;3.50;;
14013;SDS011;49110;52.584;13.408;2023-05-23T00:32:06;4.93;;;3.53;;
14013;SDS011;49110;52.584;13.408;2023-05-23T00:33:06;5.03;;;3.57;;
14013;SDS011;49110;52.584;13.408;2023-05-23T00:34:07;4.30;;;3.30;;
14013;SDS011;49110;52.584;13.408;2023-05-23T00:35:08;5.47;;;3.30;;
14013;SDS011;49110;52.584;13.408;2023-05-23T00:36:08;5.57;;;3.30;;
14013;SDS011;49110;52.584;13.408;2023-05-23T00:37:09;6.20;;;3.50;;
14013;SDS011;49110;52.584;13.408;2023-05-23T00:38:10;5.00;;;3.27;;
14013;SDS011;49110;52.584;13.408;2023-05-23T00:39:11;4.13;;;3.33;;
14013;SDS011;49110;52.584;13.408;2023-05-23T00:40:18;5.67;;;3.30;;
14013;SDS011;49110;52.584;13.408;2023-05-23T00:41:18;4.20;;;3.30;;
14013;SDS011;49110;52.584;13.408;2023-05-23T00:42:19;4.57;;;3.33;;
14013;SDS011;49110;52.584;13.408;2023-05-23T00:43:20;6.87;;;3.30;;
14013;SDS011;49110;52.584;13.408;2023-05-23T00:44:21;7.23;;;3.63;;
14013;SDS011;49110;52.584;13.408;2023-05-23T00:45:22;4.47;;;3.50;;
14013;SDS011;49110;52.584;13.408;2023-05-23T00:46:22;7.37;;;3.60;;
14013;SDS011;49110;52.584;13.408;2023-05-23T00:47:23;4.33;;;3.57;;
14013;SDS011;49110;52.584;13.408;2023-05-23T00:48:24;6.27;;;3.60;;
14013;SDS011;49110;52.584;13.408;2023-05-23T00:49:25;4.90;;;3.13;;
14013;SDS011;49110;52.584;13.408;2023-05-23T00:50:27;4.90;;;3.20;;
14013;SDS011;49110;52.584;13.408;2023-05-23T00:51:28;4.63;;;3.57;;
14013;SDS011;49110;52.584;13.408;2023-05-23T00:52:30;4.10;;;3.43;;
14013;SDS011;49110;52.584;13.408;2023-05-23T00:53:30;5.67;;;3.50;;
14013;SDS011;49110;52.584;13.408;2023-05-23T00:54:32;4.07;;;3.40;;
14013;SDS011;49110;52.584;13.408;2023-05-23T00:55:33;4.43;;;3.20;;
14013;SDS011;49110;52.584;13.408;2023-05-23T00:56:34;3.80;;;3.40;;
14013;SDS011;49110;52.584;13.408;2023-05-23T00:57:35;6.57;;;3.30;;
14013;SDS011;49110;52.584;13.408;2023-05-23T00:58:40;5.60;;;3.57;;
14013;SDS011;49110;52.584;13.408;2023-05-23T00:59:40;3.47;;;3.17;;
14013;SDS011;49110;52.584;13.408;2023-05-23T01:00:42;5.60;;;3.53;;
14013;SDS011;49110;52.584;13.408;2023-05-23T01:01:47;3.70;;;3.30;;
14013;SDS011;49110;52.584;13.408;2023-05-23T01:02:51;5.00;;;3.70;;
14013;SDS011;49110;52.584;13.408;2023-05-23T01:03:52;5.47;;;3.40;;
14013;SDS011;49110;52.584;13.408;2023-05-23T01:04:52;4.50;;;3.50;;
14013;SDS011;49110;52.584;13.408;2023-05-23T01:05:54;5.83;;;3.77;;
14013;SDS011;49110;52.584;13.408;2023-05-23T01:06:55;3.53;;;3.23;;
14013;SDS011;49110;52.584;13.408;2023-05-23T01:07:56;4.73;;;3.67;;
14013;SDS011;49110;52.584;13.408;2023-05-23T01:08:56;4.27;;;3.33;;
14013;SDS011;49110;52.584;13.408;2023-05-23T01:10:01;3.77;;;3.20;;
14013;SDS011;49110;52.584;13.408;2023-05-23T01:11:04;6.17;;;3.50;;
14013;SDS011;49110;52.584;13.408;2023-05-23T01:13:09;5.63;;;3.50;;
14013;SDS011;49110;52.584;13.408;2023-05-23T01:13:58;4.83;;;3.37;;
14013;SDS011;49110;52.584;13.408;2023-05-23T01:16:20;7.97;;;3.60;;
14013;SDS011;49110;52.584;13.408;2023-05-23T01:18:09;3.57;;;3.27;;
14013;SDS011;49110;52.584;13.408;2023-05-23T01:20:48;6.63;;;3.60;;
14013;SDS011;49110;52.584;13.408;2023-05-23T01:21:52;5.67;;;3.40;;
14013;SDS011;49110;52.584;13.408;2023-05-23T01:25:58;5.40;;;3.70;;
14013;SDS011;49110;52.584;13.408;2023-05-23T01:27:46;3.97;;;3.57;;
14013;SDS011;49110;52.584;13.408;2023-05-23T01:28:45;4.20;;;3.60;;
14013;SDS011;49110;52.584;13.408;2023-05-23T01:29:50;4.07;;;3.70;;
14013;SDS011;49110;52.584;13.408;2023-05-23T01:30:56;4.10;;;3.70;;
14013;SDS011;49110;52.584;13.408;2023-05-23T01:31:57;4.60;;;3.50;;
14013;SDS011;49110;52.584;13.408;2023-05-23T01:32:59;5.57;;;3.63;;
14013;SDS011;49110;52.584;13.408;2023-05-23T01:34:01;6.77;;;3.70;;
14013;SDS011;49110;52.584;13.408;2023-05-23T01:35:02;4.43;;;3.60;;
14013;SDS011;49110;52.584;13.408;2023-05-23T01:36:04;4.43;;;3.40;;
14013;SDS011;49110;52.584;13.408;2023-05-23T01:37:08;4.53;;;3.60;;
14013;SDS011;49110;52.584;13.408;2023-05-23T01:38:09;4.03;;;3.33;;
14013;SDS011;49110;52.584;13.408;2023-05-23T01:39:10;3.13;;;2.93;;
14013;SDS011;49110;52.584;13.408;2023-05-23T01:40:11;3.83;;;3.43;;
14013;SDS011;49110;52.584;13.408;2023-05-23T01:41:11;3.73;;;3.43;;
14013;SDS011;49110;52.584;13.408;2023-05-23T01:42:12;5.87;;;3.60;;
14013;SDS011;49110;52.584;13.408;2023-05-23T01:43:13;4.17;;;3.77;;
14013;SDS011;49110;52.584;13.408;2023-05-23T01:44:14;4.33;;;3.50;;
14013;SDS011;49110;52.584;13.408;2023-05-23T01:45:15;3.93;;;3.40;;
14013;SDS011;49110;52.584;13.408;2023-05-23T01:46:17;5.47;;;3.20;;
14013;SDS011;49110;52.584;13.408;2023-05-23T01:47:18;4.83;;;3.70;;
14013;SDS011;49110;52.584;13.408;2023-05-23T01:48:21;5.00;;;3.60;;
14013;SDS011;49110;52.584;13.408;2023-05-23T01:49:23;5.43;;;3.60;;
14013;SDS011;49110;52.584;13.408;2023-05-23T01:50:23;4.20;;;3.80;;
14013;SDS011;49110;52.584;13.408;2023-05-23T01:51:24;5.87;;;3.40;;
14013;SDS011;49110;52.584;13.408;2023-05-23T01:52:26;3.80;;;3.23;;
14013;SDS011;49110;52.584;13.408;2023-05-23T01:53:27;7.20;;;3.70;;
14013;SDS011;49110;52.584;13.408;2023-05-23T01:54:29;4.60;;;3.63;;
14013;SDS011;49110;52.584;13.408;2023-05-23T01:55:31;4.10;;;3.50;;
14013;SDS011;49110;52.584;13.408;2023-05-23T01:56:32;3.80;;;3.33;;
14013;SDS011;49110;52.584;13.408;2023-05-23T01:57:32;4.40;;;3.20;;
14013;SDS011;49110;52.584;13.408;2023-05-23T01:58:33;4.60;;;3.47;;
14013;SDS011;49110;52.584;13.408;2023-05-23T01:59:34;3.80;;;3.43;;
14013;SDS011;49110;52.584;13.408;2023-05-23T02:00:34;6.63;;;3.80;;
14013;SDS011;49110;52.584;13.408;2023-05-23T02:01:35;4.00;;;3.37;;
14013;SDS011;49110;52.584;13.408;2023-05-23T02:02:36;8.13;;;3.67;;
14013;SDS011;49110;52.584;13.408;2023-05-23T02:03:37;5.70;;;3.73;;
14013;SDS011;49110;52.584;13.408;2023-05-23T02:04:37;4.90;;;3.50;;
14013;SDS011;49110;52.584;13.408;2023-05-23T02:05:38;4.43;;;3.57;;
14013;SDS011;49110;52.584;13.408;2023-05-23T02:06:38;7.67;;;3.50;;
14013;SDS011;49110;52.584;13.408;2023-05-23T02:07:40;5.23;;;3.73;;
14013;SDS011;49110;52.584;13.408;2023-05-23T02:08:41;3.70;;;3.30;;
14013;SDS011;49110;52.584;13.408;2023-05-23T02:09:42;4.23;;;3.80;;
14013;SDS011;49110;52.584;13.408;2023-05-23T02:10:42;5.70;;;3.80;;
14013;SDS011;49110;52.584;13.408;2023-05-23T02:11:42;5.30;;;3.53;;
14013;SDS011;49110;52.584;13.408;2023-05-23T02:12:43;4.30;;;3.60;;
14013;SDS011;49110;52.584;13.408;2023-05-23T02:13:43;7.73;;;3.87;;
14013;SDS011;49110;52.584;13.408;2023-05-23T02:14:44;9.13;;;3.63;;
14013;SDS011;49110;52.584;13.408;2023-05-23T02:15:44;4.00;;;3.57;;
14013;SDS011;49110;52.584;13.408;2023-05-23T02:16:45;5.07;;;3.53;;
14013;SDS011;49110;52.584;13.408;2023-05-23T02:17:45;5.07;;;3.50;;
14013;SDS011;49110;52.584;13.408;2023-05-23T02:18:47;4.33;;;3.60;;
14013;SDS011;49110;52.584;13.408;2023-05-23T02:19:47;4.17;;;3.50;;
14013;SDS011;49110;52.584;13.408;2023-05-23T02:20:48;5.77;;;3.50;;
14013;SDS011;49110;52.584;13.408;2023-05-23T02:21:49;5.07;;;3.70;;
14013;SDS011;49110;52.584;13.408;2023-05-23T02:22:50;4.63;;;3.40;;
14013;SDS011;49110;52.584;13.408;2023-05-23T02:23:50;7.10;;;3.87;;
14013;SDS011;49110;52.584;13.408;2023-05-23T02:24:51;19.57;;;4.10;;
14013;SDS011;49110;52.584;13.408;2023-05-23T02:25:51;3.67;;;3.37;;
14013;SDS011;49110;52.584;13.408;2023-05-23T02:26:52;6.60;;;3.70;;
14013;SDS011;49110;52.584;13.408;2023-05-23T02:27:52;5.17;;;3.23;;
14013;SDS011;49110;52.584;13.408;2023-05-23T02:28:53;4.27;;;3.43;;
14013;SDS011;49110;52.584;13.408;2023-05-23T02:29:53;7.97;;;3.80;;
14013;SDS011;49110;52.584;13.408;2023-05-23T02:30:54;4.70;;;3.80;;
14013;SDS011;49110;52.584;13.408;2023-05-23T02:31:55;5.70;;;4.00;;
14013;SDS011;49110;52.584;13.408;2023-05-23T02:32:55;3.97;;;3.60;;
14013;SDS011;49110;52.584;13.408;2023-05-23T02:33:57;4.90;;;3.50;;
14013;SDS011;49110;52.584;13.408;2023-05-23T02:34:57;5.70;;;3.80;;
14013;SDS011;49110;52.584;13.408;2023-05-23T02:35:58;5.30;;;3.30;;
14013;SDS011;49110;52.584;13.408;2023-05-23T02:36:59;6.43;;;3.97;;
14013;SDS011;49110;52.584;13.408;2023-05-23T02:37:59;4.23;;;3.40;;
14013;SDS011;49110;52.584;13.408;2023-05-23T02:39:00;7.40;;;3.53;;
14013;SDS011;49110;52.584;13.408;2023-05-23T02:40:00;3.90;;;3.50;;
14013;SDS011;49110;52.584;13.408;2023-05-23T02:41:01;5.60;;;3.73;;
14013;SDS011;49110;52.584;13.408;2023-05-23T02:42:01;6.10;;;3.77;;
14013;SDS011;49110;52.584;13.408;2023-05-23T02:43:02;4.20;;;3.80;;
14013;SDS011;49110;52.584;13.408;2023-05-23T02:44:02;7.50;;;3.77;;
14013;SDS011;49110;52.584;13.408;2023-05-23T02:45:03;6.10;;;3.90;;
14013;SDS011;49110;52.584;13.408;2023-05-23T02:46:04;8.80;;;3.67;;
14013;SDS011;49110;52.584;13.408;2023-05-23T02:47:04;5.23;;;3.57;;
14013;SDS011;49110;52.584;13.408;2023-05-23T02:48:05;4.47;;;3.33;;
14013;SDS011;49110;52.584;13.408;2023-05-23T02:49:05;5.57;;;3.40;;
14013;SDS011;49110;52.584;13.408;2023-05-23T02:50:06;5.10;;;3.67;;
14013;SDS011;49110;52.584;13.408;2023-05-23T02:51:07;6.97;;;3.80;;
14013;SDS011;49110;52.584;13.408;2023-05-23T02:52:07;4.23;;;3.20;;
14013;SDS011;49110;52.584;13.408;2023-05-23T02:53:08;5.57;;;3.73;;
14013;SDS011;49110;52.584;13.408;2023-05-23T02:54:08;4.33;;;3.73;;
14013;SDS011;49110;52.584;13.408;2023-05-23T02:55:08;4.80;;;4.03;;
14013;SDS011;49110;52.584;13.408;2023-05-23T02:56:09;8.87;;;3.60;;
14013;SDS011;49110;52.584;13.408;2023-05-23T02:57:10;6.17;;;3.53;;
14013;SDS011;49110;52.584;13.408;2023-05-23T02:58:11;6.70;;;3.57;;
14013;SDS011;49110;52.584;13.408;2023-05-23T02:59:11;7.43;;;3.93;;
14013;SDS011;49110;52.584;13.408;2023-05-23T03:00:12;9.13;;;3.60;;
14013;SDS011;49110;52.584;13.408;2023-05-23T03:01:14;5.70;;;3.87;;
14013;SDS011;49110;52.584;13.408;2023-05-23T03:02:15;4.30;;;3.90;;
14013;SDS011;49110;52.584;13.408;2023-05-23T03:03:15;5.23;;;4.20;;
14013;SDS011;49110;52.584;13.408;2023-05-23T03:04:16;5.47;;;4.40;;
14013;SDS011;49110;52.584;13.408;2023-05-23T03:05:17;5.20;;;4.07;;
14013;SDS011;49110;52.584;13.408;2023-05-23T03:06:18;9.50;;;3.90;;
14013;SDS011;49110;52.584;13.408;2023-05-23T03:07:21;6.67;;;3.80;;
14013;SDS011;49110;52.584;13.408;2023-05-23T03:08:21;5.17;;;3.67;;
14013;SDS011;49110;52.584;13.408;2023-05-23T03:09:22;4.43;;;3.70;;
14013;SDS011;49110;52.584;13.408;2023-05-23T03:10:22;7.30;;;3.97;;
14013;SDS011;49110;52.584;13.408;2023-05-23T03:11:23;6.07;;;4.07;;
14013;SDS011;49110;52.584;13.408;2023-05-23T03:12:24;6.90;;;4.10;;
14013;SDS011;49110;52.584;13.408;2023-05-23T03:13:24;6.10;;;3.87;;
14013;SDS011;49110;52.584;13.408;2023-05-23T03:14:25;5.77;;;4.03;;
14013;SDS011;49110;52.584;13.408;2023-05-23T03:15:25;5.63;;;3.97;;
14013;SDS011;49110;52.584;13.408;2023-05-23T03:16:26;8.27;;;3.90;;
14013;SDS011;49110;52.584;13.408;2023-05-23T03:17:26;3.90;;;3.60;;
14013;SDS011;49110;52.584;13.408;2023-05-23T03:18:27;4.77;;;3.53;;
14013;SDS011;49110;52.584;13.408;2023-05-23T03:19:27;4.40;;;3.77;;
14013;SDS011;49110;52.584;13.408;2023-05-23T03:20:28;6.43;;;4.30;;
14013;SDS011;49110;52.584;13.408;2023-05-23T03:21:29;4.40;;;3.93;;
14013;SDS011;49110;52.584;13.408;2023-05-23T03:22:30;7.03;;;4.07;;
14013;SDS011;49110;52.584;13.408;2023-05-23T03:23:31;9.87;;;4.20;;
14013;SDS011;49110;52.584;13.408;2023-05-23T03:24:31;5.43;;;3.80;;
14013;SDS011;49110;52.584;13.408;2023-05-23T03:25:32;5.97;;;4.10;;
14013;SDS011;49110;52.584;13.408;2023-05-23T03:26:32;6.03;;;4.43;;
14013;SDS011;49110;52.584;13.408;2023-05-23T03:27:32;4.70;;;3.93;;
14013;SDS011;49110;52.584;13.408;2023-05-23T03:28:33;5.37;;;3.70;;
14013;SDS011;49110;52.584;13.408;2023-05-23T03:29:33;7.33;;;4.37;;
14013;SDS011;49110;52.584;13.408;2023-05-23T03:30:34;6.17;;;4.33;;
14013;SDS011;49110;52.584;13.408;2023-05-23T03:31:34;6.43;;;3.50;;
14013;SDS011;49110;52.584;13.408;2023-05-23T03:32:35;8.67;;;4.03;;
14013;SDS011;49110;52.584;13.408;2023-05-23T03:33:36;5.93;;;4.00;;
14013;SDS011;49110;52.584;13.408;2023-05-23T03:34:36;4.13;;;3.63;;
14013;SDS011;49110;52.584;13.408;2023-05-23T03:35:37;6.97;;;3.60;;
14013;SDS011;49110;52.584;13.408;2023-05-23T03:36:37;7.10;;;4.53;;
14013;SDS011;49110;52.584;13.408;2023-05-23T03:37:38;6.17;;;4.30;;
14013;SDS011;49110;52.584;13.408;2023-05-23T03:38:39;6.00;;;4.40;;
14013;SDS011;49110;52.584;13.408;2023-05-23T03:39:39;5.13;;;4.33;;
14013;SDS011;49110;52.584;13.408;2023-05-23T03:40:40;6.13;;;3.90;;
14013;SDS011;49110;52.584;13.408;2023-05-23T03:41:40;5.27;;;4.10;;
14013;SDS011;49110;52.584;13.408;2023-05-23T03:42:41;4.97;;;4.20;;
14013;SDS011;49110;52.584;13.408;2023-05-23T03:43:41;5.90;;;4.33;;
14013;SDS011;49110;52.584;13.408;2023-05-23T03:44:42;6.63;;;4.20;;
14013;SDS011;49110;52.584;13.408;2023-05-23T03:45:42;4.80;;;4.10;;
14013;SDS011;49110;52.584;13.408;2023-05-23T03:46:43;6.37;;;3.83;;
14013;SDS011;49110;52.584;13.408;2023-05-23T03:47:43;4.73;;;4.00;;
14013;SDS011;49110;52.584;13.408;2023-05-23T03:48:44;5.30;;;3.77;;
14013;SDS011;49110;52.584;13.408;2023-05-23T03:49:44;4.63;;;4.13;;
14013;SDS011;49110;52.584;13.408;2023-05-23T03:50:45;8.37;;;4.43;;
14013;SDS011;49110;52.584;13.408;2023-05-23T03:51:45;5.47;;;3.90;;
14013;SDS011;49110;52.584;13.408;2023-05-23T03:52:45;6.90;;;4.37;;
14013;SDS011;49110;52.584;13.408;2023-05-23T03:53:46;5.97;;;4.40;;
14013;SDS011;49110;52.584;13.408;2023-05-23T03:54:46;5.17;;;3.83;;
14013;SDS011;49110;52.584;13.408;2023-05-23T03:55:47;7.87;;;4.10;;
14013;SDS011;49110;52.584;13.408;2023-05-23T03:56:47;6.73;;;3.97;;
14013;SDS011;49110;52.584;13.408;2023-05-23T03:57:48;6.83;;;4.40;;
14013;SDS011;49110;52.584;13.408;2023-05-23T03:58:49;8.80;;;4.30;;
14013;SDS011;49110;52.584;13.408;2023-05-23T03:59:50;6.60;;;4.00;;
14013;SDS011;49110;52.584;13.408;2023-05-23T04:00:50;9.77;;;4.10;;
14013;SDS011;49110;52.584;13.408;2023-05-23T04:01:52;5.47;;;4.30;;
14013;SDS011;49110;52.584;13.408;2023-05-23T04:02:52;9.83;;;5.43;;
14013;SDS011;49110;52.584;13.408;2023-05-23T04:03:53;7.37;;;4.33;;
14013;SDS011;49110;52.584;13.408;2023-05-23T04:04:53;6.60;;;4.10;;
14013;SDS011;49110;52.584;13.408;2023-05-23T04:05:55;6.17;;;4.43;;
14013;SDS011;49110;52.584;13.408;2023-05-23T04:06:58;10.03;;;4.33;;
14013;SDS011;49110;52.584;13.408;2023-05-23T04:07:58;12.47;;;4.27;;
14013;SDS011;49110;52.584;13.408;2023-05-23T04:09:00;6.77;;;3.87;;
14013;SDS011;49110;52.584;13.408;2023-05-23T04:10:01;7.37;;;4.10;;
14013;SDS011;49110;52.584;13.408;2023-05-23T04:11:03;5.50;;;3.90;;
14013;SDS011;49110;52.584;13.408;2023-05-23T04:12:03;5.67;;;4.27;;
14013;SDS011;49110;52.584;13.408;2023-05-23T04:13:05;7.77;;;3.70;;
14013;SDS011;49110;52.584;13.408;2023-05-23T04:14:05;10.97;;;4.60;;
14013;SDS011;49110;52.584;13.408;2023-05-23T04:15:07;5.97;;;3.97;;
14013;SDS011;49110;52.584;13.408;2023-05-23T04:16:07;7.97;;;4.40;;
14013;SDS011;49110;52.584;13.408;2023-05-23T04:17:08;4.87;;;4.10;;
14013;SDS011;49110;52.584;13.408;2023-05-23T04:18:09;5.20;;;4.67;;
14013;SDS011;49110;52.584;13.408;2023-05-23T04:19:09;5.70;;;4.13;;
14013;SDS011;49110;52.584;13.408;2023-05-23T04:20:11;5.83;;;4.00;;
14013;SDS011;49110;52.584;13.408;2023-05-23T04:21:12;5.03;;;4.50;;
14013;SDS011;49110;52.584;13.408;2023-05-23T04:22:12;9.20;;;4.50;;
14013;SDS011;49110;52.584;13.408;2023-05-23T04:23:12;6.87;;;4.30;;
14013;SDS011;49110;52.584;13.408;2023-05-23T04:24:13;4.90;;;4.20;;
14013;SDS011;49110;52.584;13.408;2023-05-23T04:25:13;6.50;;;4.13;;
14013;SDS011;49110;52.584;13.408;2023-05-23T04:26:14;8.23;;;4.13;;
14013;SDS011;49110;52.584;13.408;2023-05-23T04:27:15;5.80;;;4.40;;
14013;SDS011;49110;52.584;13.408;2023-05-23T04:28:15;6.70;;;3.90;;
14013;SDS011;49110;52.584;13.408;2023-05-23T04:29:16;10.37;;;4.50;;
14013;SDS011;49110;52.584;13.408;2023-05-23T04:30:16;10.43;;;4.50;;
14013;SDS011;49110;52.584;13.408;2023-05-23T04:31:17;13.23;;;4.43;;
14013;SDS011;49110;52.584;13.408;2023-05-23T04:32:17;11.63;;;4.70;;
14013;SDS011;49110;52.584;13.408;2023-05-23T04:33:21;7.93;;;4.53;;
14013;SDS011;49110;52.584;13.408;2023-05-23T04:34:22;11.67;;;4.47;;
14013;SDS011;49110;52.584;13.408;2023-05-23T04:35:22;10.10;;;4.23;;
14013;SDS011;49110;52.584;13.408;2023-05-23T04:36:23;10.43;;;4.33;;
14013;SDS011;49110;52.584;13.408;2023-05-23T04:37:24;9.23;;;4.47;;
14013;SDS011;49110;52.584;13.408;2023-05-23T04:38:25;12.03;;;5.03;;
14013;SDS011;49110;52.584;13.408;2023-05-23T04:39:26;7.30;;;4.70;;
14013;SDS011;49110;52.584;13.408;2023-05-23T04:40:30;8.43;;;4.70;;
14013;SDS011;49110;52.584;13.408;2023-05-23T04:41:30;7.93;;;4.60;;
14013;SDS011;49110;52.584;13.408;2023-05-23T04:42:31;7.67;;;4.17;;
14013;SDS011;49110;52.584;13.408;2023-05-23T04:43:32;14.13;;;4.20;;
14013;SDS011;49110;52.584;13.408;2023-05-23T04:44:32;10.37;;;4.33;;
14013;SDS011;49110;52.584;13.408;2023-05-23T04:45:36;14.47;;;4.63;;
14013;SDS011;49110;52.584;13.408;2023-05-23T04:46:36;11.87;;;4.80;;
14013;SDS011;49110;52.584;13.408;2023-05-23T04:47:40;10.90;;;4.63;;
14013;SDS011;49110;52.584;13.408;2023-05-23T04:48:43;12.30;;;4.57;;
14013;SDS011;49110;52.584;13.408;2023-05-23T04:49:44;18.77;;;4.90;;
14013;SDS011;49110;52.584;13.408;2023-05-23T04:50:45;16.17;;;4.90;;
14013;SDS011;49110;52.584;13.408;2023-05-23T04:51:46;13.00;;;4.93;;
14013;SDS011;49110;52.584;13.408;2023-05-23T04:52:47;12.17;;;4.50;;
14013;SDS011;49110;52.584;13.408;2023-05-23T04:53:48;13.20;;;4.97;;
14013;SDS011;49110;52.584;13.408;2023-05-23T04:54:48;9.93;;;4.40;;
14013;SDS011;49110;52.584;13.408;2023-05-23T04:55:49;7.20;;;5.20;;
14013;SDS011;49110;52.584;13.408;2023-05-23T04:56:49;9.10;;;4.40;;
14013;SDS011;49110;52.584;13.408;2023-05-23T04:57:50;10.17;;;4.23;;
14013;SDS011;49110;52.584;13.408;2023-05-23T04:58:51;6.80;;;4.13;;
14013;SDS011;49110;52.584;13.408;2023-05-23T04:59:51;13.50;;;4.43;;
14013;SDS011;49110;52.584;13.408;2023-05-23T05:00:52;6.67;;;4.80;;
14013;SDS011;49110;52.584;13.408;2023-05-23T05:01:53;8.93;;;4.50;;
14013;SDS011;49110;52.584;13.408;2023-05-23T05:02:53;6.90;;;4.03;;
14013;SDS011;49110;52.584;13.408;2023-05-23T05:03:54;8.27;;;4.70;;
14013;SDS011;49110;52.584;13.408;2023-05-23T05:04:54;8.73;;;4.60;;
14013;SDS011;49110;52.584;13.408;2023-05-23T05:05:54;10.10;;;4.60;;
14013;SDS011;49110;52.584;13.408;2023-05-23T05:06:56;7.37;;;5.17;;
14013;SDS011;49110;52.584;13.408;2023-05-23T05:07:56;7.20;;;4.60;;
14013;SDS011;49110;52.584;13.408;2023-05-23T05:08:57;6.97;;;4.73;;
14013;SDS011;49110;52.584;13.408;2023-05-23T05:09:57;7.23;;;4.40;;
14013;SDS011;49110;52.584;13.408;2023-05-23T05:10:58;10.73;;;5.00;;
14013;SDS011;49110;52.584;13.408;2023-05-23T05:11:58;8.57;;;4.40;;
14013;SDS011;49110;52.584;13.408;2023-05-23T05:12:59;7.70;;;4.43;;
14013;SDS011;49110;52.584;13.408;2023-05-23T05:13:59;7.77;;;3.90;;
14013;SDS011;49110;52.584;13.408;2023-05-23T05:15:01;7.57;;;4.50;;
14013;SDS011;49110;52.584;13.408;2023-05-23T05:16:02;9.13;;;4.60;;
14013;SDS011;49110;52.584;13.408;2023-05-23T05:17:03;5.40;;;4.20;;
14013;SDS011;49110;52.584;13.408;2023-05-23T05:18:03;9.33;;;4.77;;
14013;SDS011;49110;52.584;13.408;2023-05-23T05:19:04;11.77;;;4.80;;
14013;SDS011;49110;52.584;13.408;2023-05-23T05:20:05;10.60;;;5.10;;
14013;SDS011;49110;52.584;13.408;2023-05-23T05:21:07;15.77;;;4.47;;
14013;SDS011;49110;52.584;13.408;2023-05-23T05:22:08;7.67;;;4.50;;
14013;SDS011;49110;52.584;13.408;2023-05-23T05:23:08;32.17;;;5.43;;
14013;SDS011;49110;52.584;13.408;2023-05-23T05:24:10;14.57;;;4.83;;
14013;SDS011;49110;52.584;13.408;2023-05-23T05:25:11;15.43;;;5.07;;
14013;SDS011;49110;52.584;13.408;2023-05-23T05:26:12;13.73;;;4.83;;
14013;SDS011;49110;52.584;13.408;2023-05-23T05:27:12;10.83;;;4.40;;
14013;SDS011;49110;52.584;13.408;2023-05-23T05:28:13;11.37;;;4.20;;
14013;SDS011;49110;52.584;13.408;2023-05-23T05:29:13;11.30;;;4.40;;
14013;SDS011;49110;52.584;13.408;2023-05-23T05:30:14;13.43;;;5.03;;
14013;SDS011;49110;52.584;13.408;2023-05-23T05:31:17;20.83;;;5.20;;
14013;SDS011;49110;52.584;13.408;2023-05-23T05:32:17;7.43;;;4.67;;
14013;SDS011;49110;52.584;13.408;2023-05-23T05:33:18;6.67;;;4.30;;
14013;SDS011;49110;52.584;13.408;2023-05-23T05:34:20;10.67;;;4.30;;
14013;SDS011;49110;52.584;13.408;2023-05-23T05:35:21;8.67;;;4.27;;
14013;SDS011;49110;52.584;13.408;2023-05-23T05:36:22;7.73;;;4.67;;
14013;SDS011;49110;52.584;13.408;2023-05-23T05:37:22;9.10;;;4.67;;
14013;SDS011;49110;52.584;13.408;2023-05-23T05:38:23;10.37;;;5.67;;
14013;SDS011;49110;52.584;13.408;2023-05-23T05:39:23;10.30;;;4.10;;
14013;SDS011;49110;52.584;13.408;2023-05-23T05:40:25;10.03;;;4.57;;
14013;SDS011;49110;52.584;13.408;2023-05-23T05:41:25;9.00;;;4.20;;
14013;SDS011;49110;52.584;13.408;2023-05-23T05:42:26;14.10;;;4.83;;
14013;SDS011;49110;52.584;13.408;2023-05-23T05:43:26;14.87;;;4.33;;
14013;SDS011;49110;52.584;13.408;2023-05-23T05:44:27;7.73;;;4.47;;
14013;SDS011;49110;52.584;13.408;2023-05-23T05:45:27;12.87;;;4.70;;
14013;SDS011;49110;52.584;13.408;2023-05-23T05:46:28;9.27;;;4.70;;
14013;SDS011;49110;52.584;13.408;2023-05-23T05:47:28;11.53;;;4.50;;
14013;SDS011;49110;52.584;13.408;2023-05-23T05:48:29;10.13;;;4.57;;
14013;SDS011;49110;52.584;13.408;2023-05-23T05:49:31;7.00;;;4.40;;
14013;SDS011;49110;52.584;13.408;2023-05-23T05:50:31;8.50;;;4.60;;
14013;SDS011;49110;52.584;13.408;2023-05-23T05:51:32;12.67;;;4.73;;
14013;SDS011;49110;52.584;13.408;2023-05-23T05:52:32;8.13;;;4.20;;
14013;SDS011;49110;52.584;13.408;2023-05-23T05:53:37;12.43;;;4.87;;
14013;SDS011;49110;52.584;13.408;2023-05-23T05:54:37;9.17;;;4.33;;
14013;SDS011;49110;52.584;13.408;2023-05-23T05:55:38;13.87;;;4.50;;
14013;SDS011;49110;52.584;13.408;2023-05-23T05:56:38;5.33;;;4.33;;
14013;SDS011;49110;52.584;13.408;2023-05-23T05:57:39;10.67;;;4.37;;
14013;SDS011;49110;52.584;13.408;2023-05-23T05:58:40;10.20;;;4.50;;
14013;SDS011;49110;52.584;13.408;2023-05-23T05:59:41;8.03;;;4.50;;
14013;SDS011;49110;52.584;13.408;2023-05-23T06:00:41;12.97;;;4.53;;
14013;SDS011;49110;52.584;13.408;2023-05-23T06:01:42;9.93;;;4.90;;
14013;SDS011;49110;52.584;13.408;2023-05-23T06:02:44;8.33;;;4.57;;
14013;SDS011;49110;52.584;13.408;2023-05-23T06:03:50;6.60;;;4.40;;
14013;SDS011;49110;52.584;13.408;2023-05-23T06:04:50;7.40;;;4.30;;
14013;SDS011;49110;52.584;13.408;2023-05-23T06:05:51;10.80;;;4.83;;
14013;SDS011;49110;52.584;13.408;2023-05-23T06:06:51;11.07;;;5.10;;
14013;SDS011;49110;52.584;13.408;2023-05-23T06:07:52;10.73;;;4.43;;
14013;SDS011;49110;52.584;13.408;2023-05-23T06:08:52;10.13;;;4.57;;
14013;SDS011;49110;52.584;13.408;2023-05-23T06:09:53;8.50;;;4.47;;